Observations
| Time | Sensor | AQI | SAQ | Temp °C | Hum % | Pres Pa | CO μg/m³ | H₂S μg/m³ | NO μg/m³ | NO₂ μg/m³ | O₃ μg/m³ | SO₂ μg/m³ | CO₂e PPM | VOC PPM | PM1 μg/m³ | PM2.5 μg/m³ | PM4 μg/m³ | PM10 μg/m³ | TPS µm |
|---|---|---|---|---|---|---|---|---|---|---|---|---|---|---|---|---|---|---|---|
| Tuesday 11 August 2026 | |||||||||||||||||||
| 14:24 | Trim Patrick St | 2 | 34.3 | 23 | 69,557 | 0 | 0 | 0.56 | 7.67 | 72.39 | 18.52 | 2 | 8.1 | 8.91 | |||||
| 14:24 | Trim Market St | 2 | 42.7 | 16 | 67,388 | 0 | 0 | 0 | 14.81 | 108.91 | 7.33 | 0.71 | 4.48 | 4.93 | |||||
| 14:23 | Trim Patrick St | 2 | 34.2 | 24 | 69,515 | 0 | 2.31 | 0.69 | 28.19 | 79.99 | 18.38 | 2 | 8.08 | 8.89 | |||||
| 14:22 | Trim Patrick St | 2 | 34.1 | 24 | 69,499 | 0 | 0 | 0.65 | 15.71 | 122.27 | 18.92 | 2 | 8.03 | 8.84 | |||||
| 14:22 | Trim Market St | 2 | 42.6 | 16 | 67,365 | 0 | 0 | 0 | 15.13 | 95.74 | 5.68 | 0.71 | 3.92 | 4.32 | |||||
| 14:21 | Trim Patrick St | 2 | 34 | 24 | 69,507 | 0 | 0 | 0.66 | 15.79 | 148.41 | 19.84 | 2.86 | 8.87 | 9.76 | |||||
| 14:20 | Trim Patrick St | 2 | 34 | 23 | 69,519 | 0 | 0 | 0.68 | 15.06 | 100.13 | 16.92 | 2 | 8.11 | 8.92 | |||||
| 14:20 | Trim Market St | 2 | 42.6 | 16 | 67,361 | 0 | 0 | 0 | 15.17 | 92.2 | 6.43 | 0 | 3.35 | 3.68 | |||||
| 14:19 | Trim Market St | 2 | 42.5 | 16 | 67,333 | 0 | 0 | 0 | 15.28 | 100.44 | 5.91 | 0.71 | 3.92 | 4.32 | |||||
| 14:18 | Trim Patrick St | 2 | 33.8 | 25 | 69,532 | 0 | 0 | 0.57 | 10.61 | 110.33 | 20.59 | 2 | 8 | 8.8 | |||||
| 14:18 | Trim Market St | 2 | 42.4 | 16 | 67,325 | 0 | 0 | 0 | 15.02 | 84.78 | 5.49 | 0 | 3.34 | 3.67 | |||||
| 14:17 | Trim Patrick St | 2 | 33.8 | 23 | 69,525 | 0 | 0 | 0.7 | 13.36 | 98.84 | 17.76 | 2 | 8.94 | 9.83 | |||||
| 14:16 | Trim Patrick St | 2 | 33.8 | 25 | 69,519 | 0 | 0 | 0.64 | 7.2 | 82.21 | 17.13 | 2 | 7.98 | 8.78 | |||||
| 14:14 | Trim Market St | 2 | 42.1 | 17 | 67,298 | 0 | 0 | 0 | 14.98 | 81.15 | 4.58 | 0 | 3.88 | 4.27 | |||||
| 14:13 | Trim Market St | 2 | 42 | 16 | 67,286 | 0 | 0 | 0 | 17.19 | 68.36 | 3.43 | 0 | 3.33 | 3.66 | |||||
| 14:13 | Trim Patrick St | 2 | 33.6 | 24 | 69,519 | 0 | 0 | 0.77 | 15.88 | 119.19 | 16.19 | 2.86 | 8.86 | 9.74 | |||||
| 14:12 | Trim Market St | 2 | 41.9 | 17 | 67,241 | 0 | 0 | 0 | 15.12 | 81.63 | 4.28 | 0 | 3.31 | 3.65 | |||||
| 14:12 | Trim Patrick St | 2 | 33.6 | 26 | 69,509 | 0 | 0 | 0.65 | 12.91 | 101.71 | 18.59 | 2 | 7.95 | 8.75 | |||||
| 14:11 | Trim Patrick St | 2 | 33.5 | 26 | 69,499 | 0 | 0 | 0.65 | 9.13 | 74.36 | 17.45 | 2.86 | 8.73 | 9.61 | |||||
| 14:09 | Trim Market St | 2 | 41.6 | 16 | 67,202 | 0 | 0 | 0 | 15.85 | 125.7 | 3.85 | 0.71 | 3.9 | 4.29 | |||||